Time;durP1;ratioP1;P1;durP2;ratioP2;P2;SDS_P1;SDS_P2;PMS_P1;PMS_P2;Temp;Humidity;BMP_temperature;BMP_pressure;BME280_temperature;BME280_humidity;BME280_pressure;Samples;Min_cycle;Max_cycle;Signal;HPM_P1;HPM_P2
2022/04/29 00:01:58;;;;;;;50.58;30.17;;;10.60;99.90;;;;;;4827961;29;20018;-80
2022/04/29 00:04:24;;;;;;;54.13;29.88;;;10.60;99.90;;;;;;4825287;29;20431;-82
2022/04/29 00:06:50;;;;;;;46.33;28.55;;;10.60;99.90;;;;;;4844489;29;20369;-82
2022/04/29 00:09:17;;;;;;;41.67;27.13;;;10.60;99.90;;;;;;4844612;29;20030;-79
2022/04/29 00:11:44;;;;;;;43.38;28.40;;;10.60;99.90;;;;;;4827493;29;20026;-82
2022/04/29 00:14:10;;;;;;;44.75;28.38;;;10.50;99.90;;;;;;4827595;29;20017;-80
2022/04/29 00:16:36;;;;;;;43.17;28.85;;;10.50;99.90;;;;;;4826908;29;20052;-80
2022/04/29 00:19:02;;;;;;;46.63;28.02;;;10.50;99.90;;;;;;4827082;29;20022;-80
2022/04/29 00:21:27;;;;;;;47.10;29.70;;;10.50;99.90;;;;;;4835307;29;20026;-81
2022/04/29 00:23:53;;;;;;;47.83;30.45;;;10.40;99.90;;;;;;4817492;29;20027;-80
2022/04/29 00:26:19;;;;;;;58.97;34.20;;;10.40;99.90;;;;;;4833031;29;20069;-80
2022/04/29 00:28:44;;;;;;;55.75;34.67;;;10.40;99.90;;;;;;4818043;29;20030;-81
2022/04/29 00:31:10;;;;;;;55.05;34.22;;;10.40;99.90;;;;;;4816912;29;20026;-82
2022/04/29 00:33:36;;;;;;;47.53;32.33;;;10.40;99.90;;;;;;4833191;29;20101;-81
2022/04/29 00:36:02;;;;;;;46.65;29.67;;;10.40;99.90;;;;;;4818155;29;20188;-81
2022/04/29 00:38:27;;;;;;;45.95;29.42;;;10.40;99.90;;;;;;4832920;29;20033;-79
2022/04/29 00:40:53;;;;;;;42.90;28.30;;;10.40;99.90;;;;;;4817097;29;20057;-80
2022/04/29 00:43:19;;;;;;;42.88;29.15;;;10.40;99.90;;;;;;4834111;29;20386;-79
2022/04/29 00:45:44;;;;;;;41.58;28.48;;;10.40;99.90;;;;;;4815986;29;20030;-80
2022/04/29 00:48:10;;;;;;;46.42;28.10;;;10.40;99.90;;;;;;4833622;29;20030;-80
2022/04/29 00:50:36;;;;;;;43.22;27.05;;;10.30;99.90;;;;;;4833670;29;20347;-81
2022/04/29 00:53:03;;;;;;;43.40;26.80;;;10.30;99.90;;;;;;4815963;29;20022;-80
2022/04/29 00:55:30;;;;;;;37.85;26.15;;;10.30;99.90;;;;;;4817496;29;20764;-80
2022/04/29 00:57:56;;;;;;;44.72;27.13;;;10.20;99.90;;;;;;4833872;29;20049;-80
2022/04/29 01:00:22;;;;;;;43.88;26.77;;;10.20;99.90;;;;;;4832089;29;20050;-82
2022/04/29 01:02:53;;;;;;;45.03;27.98;;;10.10;99.90;;;;;;4817358;29;20022;-80
2022/04/29 01:05:21;;;;;;;41.55;29.25;;;10.10;99.90;;;;;;4833918;29;20096;-80
2022/04/29 01:07:48;;;;;;;43.40;27.98;;;10.00;99.90;;;;;;4817740;29;20073;-81
2022/04/29 01:10:16;;;;;;;44.55;29.65;;;10.00;99.90;;;;;;4833475;29;20023;-81
2022/04/29 01:12:44;;;;;;;50.25;30.50;;;10.00;99.90;;;;;;4832486;29;20029;-80
2022/04/29 01:15:13;;;;;;;47.20;30.27;;;9.90;99.90;;;;;;4816874;29;20036;-81
2022/04/29 01:17:41;;;;;;;50.33;31.98;;;9.90;99.90;;;;;;4817333;29;20030;-82
2022/04/29 01:20:09;;;;;;;60.85;35.58;;;9.90;99.90;;;;;;4832403;29;20033;-80
2022/04/29 01:22:35;;;;;;;62.70;36.97;;;9.90;99.90;;;;;;4832667;29;20026;-80
2022/04/29 01:25:03;;;;;;;62.47;37.70;;;9.80;99.90;;;;;;4817422;29;20026;-80
2022/04/29 01:27:28;;;;;;;56.00;34.22;;;9.90;99.90;;;;;;4832280;29;20121;-80
2022/04/29 01:30:02;;;;;;;51.17;32.65;;;9.80;99.90;;;;;;4816131;29;20175;-79
2022/04/29 01:32:30;;;;;;;58.35;32.78;;;9.80;99.90;;;;;;4832374;29;20023;-81
2022/04/29 01:34:56;;;;;;;56.10;32.05;;;9.80;99.90;;;;;;4832655;29;20070;-79
2022/04/29 01:37:22;;;;;;;54.38;30.98;;;9.90;99.90;;;;;;4817229;29;20022;-82
2022/04/29 01:39:48;;;;;;;54.83;31.58;;;9.80;99.90;;;;;;4831990;29;20019;-81
2022/04/29 01:42:14;;;;;;;63.42;35.60;;;9.80;99.90;;;;;;4832377;29;20033;-80
2022/04/29 01:44:40;;;;;;;69.53;37.92;;;9.80;99.90;;;;;;4833118;29;20037;-80
2022/04/29 01:47:05;;;;;;;76.90;40.38;;;9.80;99.90;;;;;;4831842;29;20057;-79
2022/04/29 01:49:31;;;;;;;76.78;39.75;;;9.70;99.90;;;;;;4832547;29;20390;-80
2022/04/29 01:51:57;;;;;;;63.30;37.80;;;9.70;99.90;;;;;;4832821;29;20022;-80
2022/04/29 01:54:23;;;;;;;63.42;35.50;;;9.70;99.90;;;;;;4815326;29;20473;-79
2022/04/29 01:56:52;;;;;;;63.53;35.28;;;9.70;99.90;;;;;;4816699;29;20034;-80
2022/04/29 01:59:20;;;;;;;58.55;34.15;;;9.70;99.90;;;;;;4832644;29;20046;-81
2022/04/29 02:01:46;;;;;;;58.72;33.35;;;9.70;99.90;;;;;;4831873;29;20058;-80
2022/04/29 02:04:13;;;;;;;66.43;36.33;;;9.60;99.90;;;;;;4816158;29;20022;-79
2022/04/29 02:06:39;;;;;;;67.25;37.60;;;9.60;99.90;;;;;;4833160;29;20109;-80
2022/04/29 02:09:05;;;;;;;69.00;38.90;;;9.50;99.90;;;;;;4815202;29;20029;-81
2022/04/29 02:11:32;;;;;;;61.65;36.88;;;9.50;99.90;;;;;;4816195;29;20045;-79
2022/04/29 02:13:57;;;;;;;55.13;32.17;;;9.50;99.90;;;;;;4832616;29;20482;-80
2022/04/29 02:16:23;;;;;;;51.42;31.83;;;9.50;99.90;;;;;;4830937;29;20125;-79
2022/04/29 02:18:49;;;;;;;48.67;29.98;;;9.40;99.90;;;;;;4833265;29;20026;-80
2022/04/29 02:21:15;;;;;;;48.53;30.17;;;9.40;99.90;;;;;;4816042;29;20037;-80
2022/04/29 02:23:41;;;;;;;47.80;29.90;;;9.40;99.90;;;;;;4815033;29;20450;-79
2022/04/29 02:26:06;;;;;;;47.15;28.75;;;9.30;99.90;;;;;;4816930;29;20026;-80
2022/04/29 02:28:34;;;;;;;49.28;29.60;;;9.30;99.90;;;;;;4831833;29;20506;-80
2022/04/29 02:31:00;;;;;;;44.85;29.00;;;9.20;99.90;;;;;;4831327;29;20033;-82
2022/04/29 02:33:27;;;;;;;50.83;29.73;;;9.20;99.90;;;;;;4832922;29;20485;-81
2022/04/29 02:35:54;;;;;;;54.95;29.70;;;9.20;99.90;;;;;;4815638;29;20030;-79
2022/04/29 02:38:20;;;;;;;45.25;28.63;;;9.20;99.90;;;;;;4814896;29;20531;-80
2022/04/29 02:40:46;;;;;;;44.80;28.92;;;9.20;99.90;;;;;;4834378;29;20030;-81
2022/04/29 02:43:12;;;;;;;49.78;29.48;;;9.20;99.90;;;;;;4818963;29;20059;-79
2022/04/29 02:45:38;;;;;;;49.85;30.08;;;9.10;99.90;;;;;;4834792;29;20030;-80
2022/04/29 02:48:04;;;;;;;48.83;30.60;;;9.10;99.90;;;;;;4836650;29;20034;-79
2022/04/29 02:50:31;;;;;;;49.42;31.33;;;9.10;99.90;;;;;;4834975;29;20103;-79
2022/04/29 02:52:56;;;;;;;54.65;31.50;;;9.10;99.90;;;;;;4818681;29;20026;-80
2022/04/29 02:55:22;;;;;;;47.15;30.98;;;9.10;99.90;;;;;;4819774;29;20040;-78
2022/04/29 02:57:48;;;;;;;48.92;31.48;;;9.10;99.90;;;;;;4818040;29;20458;-79
2022/04/29 03:00:14;;;;;;;55.97;32.38;;;9.10;99.90;;;;;;4835026;29;20030;-80
2022/04/29 03:02:40;;;;;;;48.60;30.85;;;9.10;99.90;;;;;;4836032;29;20030;-80
2022/04/29 03:05:07;;;;;;;48.92;30.92;;;9.00;99.90;;;;;;4834569;29;20023;-79
2022/04/29 03:07:33;;;;;;;53.08;33.33;;;9.00;99.90;;;;;;4835559;29;20391;-80
2022/04/29 03:09:59;;;;;;;55.10;34.13;;;9.00;99.90;;;;;;4819311;29;20086;-80
2022/04/29 03:12:25;;;;;;;56.25;35.25;;;9.00;99.90;;;;;;4834277;29;20469;-80
2022/04/29 03:14:51;;;;;;;54.53;34.78;;;9.00;99.90;;;;;;4835476;29;20174;-79
2022/04/29 03:20:02;;;;;;;61.00;36.05;;;8.90;99.90;;;;;;4835574;29;20031;-79
2022/04/29 03:22:28;;;;;;;60.08;36.70;;;8.90;99.90;;;;;;4833929;29;20078;-79
2022/04/29 03:24:54;;;;;;;66.30;41.60;;;9.00;99.90;;;;;;4834786;29;20411;-79
2022/04/29 03:27:20;;;;;;;66.88;40.90;;;8.90;99.90;;;;;;4835443;29;20038;-79
2022/04/29 03:29:47;;;;;;;70.15;39.58;;;8.90;99.90;;;;;;4817375;29;20018;-79
2022/04/29 03:32:13;;;;;;;62.33;38.75;;;8.90;99.90;;;;;;4834793;29;20029;-79
2022/04/29 03:34:39;;;;;;;71.32;39.45;;;8.90;99.90;;;;;;4835252;29;20022;-79
2022/04/29 03:37:05;;;;;;;78.78;41.20;;;8.90;99.90;;;;;;4833675;29;20057;-78
2022/04/29 03:39:31;;;;;;;75.25;43.03;;;8.80;99.90;;;;;;4835178;29;20021;-78
2022/04/29 03:41:57;;;;;;;80.78;47.75;;;8.80;99.90;;;;;;4818191;29;20026;-78
2022/04/29 03:44:23;;;;;;;81.35;49.05;;;8.80;99.90;;;;;;4816908;29;20378;-79
2022/04/29 03:46:48;;;;;;;75.53;44.53;;;8.80;99.90;;;;;;4835260;29;20519;-79
2022/04/29 03:51:58;;;;;;;68.07;38.60;;;8.90;99.90;;;;;;4844529;29;20171;-80
2022/04/29 03:54:24;;;;;;;59.17;35.63;;;8.90;99.90;;;;;;4844485;29;20108;-78
2022/04/29 03:56:51;;;;;;;64.10;37.35;;;8.90;99.90;;;;;;4828441;29;20034;-78
2022/04/29 03:59:17;;;;;;;69.80;40.80;;;8.90;99.90;;;;;;4844359;29;20042;-78
2022/04/29 04:01:43;;;;;;;66.78;42.58;;;8.90;99.90;;;;;;4824973;29;20125;-79
2022/04/29 04:04:08;;;;;;;71.68;45.50;;;8.90;99.90;;;;;;4844547;29;20390;-78
2022/04/29 04:06:49;;;;;;;66.38;43.13;;;9.00;99.90;;;;;;4819074;29;20042;-79
2022/04/29 04:09:20;;;;;;;66.30;46.25;;;9.00;99.90;;;;;;4826460;29;20494;-79
2022/04/29 04:11:46;;;;;;;67.68;42.00;;;8.90;99.90;;;;;;4835190;29;20546;-80
2022/04/29 04:14:12;;;;;;;66.30;41.85;;;9.00;99.90;;;;;;4844369;29;20101;-79
2022/04/29 04:16:38;;;;;;;64.38;40.80;;;9.10;99.90;;;;;;4836103;29;20125;-79
2022/04/29 04:19:05;;;;;;;63.05;40.13;;;9.10;99.90;;;;;;4826427;29;20075;-80
2022/04/29 04:21:31;;;;;;;57.85;36.45;;;9.20;99.90;;;;;;4828884;29;20065;-79
2022/04/29 04:23:57;;;;;;;58.85;36.80;;;9.30;99.90;;;;;;4810132;29;20058;-80
2022/04/29 04:26:23;;;;;;;57.78;36.47;;;9.30;99.90;;;;;;4812754;29;20454;-79
2022/04/29 04:28:49;;;;;;;69.35;40.42;;;9.30;99.90;;;;;;4827970;29;20033;-79
2022/04/29 04:31:15;;;;;;;74.13;45.88;;;9.40;99.90;;;;;;4842863;29;20056;-80
2022/04/29 04:33:41;;;;;;;69.68;44.35;;;9.50;99.90;;;;;;4809503;29;20026;-78
2022/04/29 04:36:09;;;;;;;69.93;43.83;;;9.50;99.90;;;;;;4825748;29;20378;-77
2022/04/29 04:38:38;;;;;;;63.28;41.92;;;9.60;99.90;;;;;;4827903;29;20089;-79
2022/04/29 04:41:04;;;;;;;64.57;37.75;;;9.70;99.90;;;;;;4825895;29;20027;-80
2022/04/29 04:43:30;;;;;;;61.20;35.58;;;9.80;99.90;;;;;;4809386;29;20034;-81
2022/04/29 04:45:56;;;;;;;53.63;33.58;;;9.90;99.90;;;;;;4826023;29;20031;-78
2022/04/29 04:48:22;;;;;;;57.20;35.65;;;10.00;99.90;;;;;;4825767;29;20110;-79
2022/04/29 04:50:47;;;;;;;66.80;37.25;;;10.10;99.90;;;;;;4809378;29;20427;-79
2022/04/29 04:53:13;;;;;;;61.08;33.88;;;10.20;99.90;;;;;;4809329;29;20485;-77
2022/04/29 04:55:40;;;;;;;57.85;34.92;;;10.30;99.90;;;;;;4817143;29;20038;-79
2022/04/29 04:58:06;;;;;;;52.47;33.53;;;10.30;99.90;;;;;;4827124;29;20046;-80
2022/04/29 05:00:32;;;;;;;55.20;32.90;;;10.40;99.90;;;;;;4827587;29;20052;-79
2022/04/29 05:02:58;;;;;;;49.85;32.63;;;10.50;99.90;;;;;;4843123;29;20022;-79
2022/04/29 05:05:24;;;;;;;55.13;34.45;;;10.60;99.90;;;;;;4843328;29;20481;-78
2022/04/29 05:07:50;;;;;;;51.92;35.13;;;10.60;99.90;;;;;;4843489;29;20108;-79
2022/04/29 05:10:16;;;;;;;53.58;32.63;;;10.70;99.90;;;;;;4827135;29;20037;-79
2022/04/29 05:12:43;;;;;;;47.50;31.77;;;10.70;99.90;;;;;;4827191;29;20037;-79
2022/04/29 05:15:10;;;;;;;51.35;31.30;;;10.80;99.90;;;;;;4843215;29;20382;-81
2022/04/29 05:17:41;;;;;;;45.65;28.58;;;10.80;99.90;;;;;;4843517;29;20457;-81
2022/04/29 05:20:09;;;;;;;46.80;29.67;;;10.90;99.90;;;;;;4827135;29;20033;-81
2022/04/29 05:22:50;;;;;;;42.35;29.45;;;11.00;99.90;;;;;;4825773;29;20026;-81
2022/04/29 05:25:32;;;;;;;48.45;28.42;;;11.10;99.90;;;;;;4825376;29;20034;-80
2022/04/29 05:35:12;;;;;;;38.88;27.55;;;11.50;99.90;;;;;;4807833;29;20550;-81
2022/04/29 05:45:14;;;;;;;66.28;39.95;;;11.90;99.90;;;;;;4843250;29;20037;-82
2022/04/29 05:54:50;;;;;;;43.63;25.88;;;12.30;99.90;;;;;;4767744;30;20119;-81
2022/04/29 05:57:53;;;;;;;38.10;24.02;;;12.40;99.90;;;;;;4767608;30;20500;-81
2022/04/29 06:04:47;;;;;;;;;;;;;;;;;;;;;
2022/04/29 06:07:18;;;;;;;35.78;23.92;;;12.80;99.90;;;;;;4627704;30;20480;-81
2022/04/29 06:10:10;;;;;;;35.40;22.80;;;13.00;99.90;;;;;;4630278;31;20043;-81
2022/04/29 06:16:17;;;;;;;37.17;25.52;;;13.10;99.90;;;;;;4649161;30;20133;-81
2022/04/29 06:19:00;;;;;;;34.38;24.42;;;13.20;99.90;;;;;;4599939;31;20052;-82
2022/04/29 06:21:26;;;;;;;53.53;29.95;;;13.30;99.90;;;;;;4600132;31;20048;-80
2022/04/29 06:23:52;;;;;;;44.63;30.30;;;13.30;99.90;;;;;;4600007;31;20096;-81
2022/04/29 06:29:19;;;;;;;36.63;24.63;;;13.50;99.90;;;;;;4600086;31;20043;-82
2022/04/29 06:31:48;;;;;;;44.75;34.42;;;13.60;99.90;;;;;;4599678;31;20044;-81
2022/04/29 06:34:14;;;;;;;45.25;29.10;;;13.70;99.90;;;;;;4586634;31;20067;-82
2022/04/29 06:36:42;;;;;;;34.20;22.40;;;13.90;99.90;;;;;;4585494;31;20486;-81
2022/04/29 06:39:08;;;;;;;32.05;23.42;;;13.90;99.90;;;;;;4584292;31;20048;-82
2022/04/29 06:41:38;;;;;;;36.10;24.10;;;14.00;99.90;;;;;;4611328;31;20051;-80
2022/04/29 06:44:04;;;;;;;36.72;22.50;;;14.10;99.90;;;;;;4675091;30;20061;-82
2022/04/29 06:46:30;;;;;;;33.50;21.73;;;14.20;99.90;;;;;;4701319;30;20045;-79
2022/04/29 06:48:56;;;;;;;37.45;25.17;;;14.30;99.90;;;;;;4697535;30;20072;-81
2022/04/29 06:51:23;;;;;;;30.77;20.70;;;14.50;99.90;;;;;;4721291;30;20048;-79
2022/04/29 06:53:49;;;;;;;30.52;20.38;;;14.40;99.90;;;;;;4736030;30;20070;-80
2022/04/29 06:56:15;;;;;;;29.02;20.75;;;14.50;99.90;;;;;;4793400;29;20394;-80
2022/04/29 06:58:41;;;;;;;28.35;19.58;;;14.60;99.90;;;;;;4810947;29;20027;-82
2022/04/29 07:01:10;;;;;;;26.85;18.90;;;14.80;99.90;;;;;;4811190;29;20034;-80
2022/04/29 07:03:41;;;;;;;28.70;19.30;;;14.90;99.90;;;;;;4827258;29;20061;-81
2022/04/29 07:06:07;;;;;;;27.87;19.73;;;15.10;99.90;;;;;;4811291;29;20026;-80
2022/04/29 07:08:32;;;;;;;24.83;17.40;;;15.20;99.90;;;;;;4827055;29;20097;-81
2022/04/29 07:10:58;;;;;;;25.08;17.40;;;15.20;99.90;;;;;;4827203;29;20038;-79
2022/04/29 07:13:24;;;;;;;22.77;16.40;;;15.50;99.90;;;;;;4811032;29;20140;-80
2022/04/29 07:15:50;;;;;;;22.35;17.05;;;15.50;99.90;;;;;;4827503;29;20469;-80
2022/04/29 07:18:17;;;;;;;25.83;17.38;;;15.60;99.90;;;;;;4810833;29;20049;-81
2022/04/29 07:20:43;;;;;;;20.35;15.65;;;15.70;99.90;;;;;;4826908;29;20058;-80
2022/04/29 07:23:09;;;;;;;21.90;14.40;;;15.90;99.90;;;;;;4827266;29;20105;-81
2022/04/29 07:25:38;;;;;;;18.33;12.93;;;15.90;99.90;;;;;;4826736;29;20030;-82
2022/04/29 07:28:09;;;;;;;18.88;14.25;;;15.90;99.90;;;;;;4826747;29;20050;-79
2022/04/29 07:30:35;;;;;;;19.45;14.75;;;16.00;99.90;;;;;;4827023;29;20022;-79
2022/04/29 07:33:01;;;;;;;22.67;14.93;;;16.20;99.90;;;;;;4810361;29;20172;-81
2022/04/29 07:43:54;;;;;;;31.50;14.40;;;16.90;99.90;;;;;;4825101;29;20083;-79
2022/04/29 07:46:22;;;;;;;22.00;12.90;;;16.90;99.90;;;;;;4809254;29;20558;-79
2022/04/29 07:48:50;;;;;;;18.08;12.73;;;17.00;99.90;;;;;;4826647;29;20026;-80
2022/04/29 07:51:16;;;;;;;15.80;10.63;;;17.20;99.90;;;;;;4826746;29;20355;-80
2022/04/29 07:53:42;;;;;;;19.45;11.55;;;17.30;99.90;;;;;;4809716;29;20511;-80
2022/04/29 07:56:08;;;;;;;16.77;12.02;;;17.50;99.90;;;;;;4826013;29;20378;-80
2022/04/29 07:58:34;;;;;;;14.90;9.63;;;17.50;99.90;;;;;;4826569;29;20027;-82
2022/04/29 08:01:01;;;;;;;13.68;9.77;;;17.70;99.90;;;;;;4809573;29;20054;-82
2022/04/29 08:03:27;;;;;;;16.85;10.98;;;17.30;99.90;;;;;;4810476;29;20420;-82
2022/04/29 08:05:55;;;;;;;13.07;9.57;;;17.60;99.90;;;;;;4810244;29;20088;-79
2022/04/29 08:08:21;;;;;;;15.15;9.93;;;17.90;99.90;;;;;;4826621;29;20058;-80
2022/04/29 08:10:47;;;;;;;15.02;9.88;;;17.90;99.90;;;;;;4826102;29;20050;-79
2022/04/29 08:13:12;;;;;;;16.52;10.75;;;18.00;99.90;;;;;;4826224;29;20035;-79
2022/04/29 08:15:38;;;;;;;17.08;10.77;;;17.80;99.90;;;;;;4826417;29;20083;-80
2022/04/29 08:18:06;;;;;;;15.35;10.85;;;17.40;99.90;;;;;;4826267;29;20070;-79
2022/04/29 08:20:31;;;;;;;16.50;12.40;;;17.20;99.90;;;;;;4810039;29;20110;-79
2022/04/29 08:22:57;;;;;;;18.58;12.63;;;17.50;99.90;;;;;;4826440;29;20477;-79
2022/04/29 08:25:23;;;;;;;20.80;12.27;;;17.70;99.90;;;;;;4826212;29;20103;-80
2022/04/29 08:27:50;;;;;;;29.52;11.68;;;17.80;99.90;;;;;;4825923;29;20033;-78
2022/04/29 08:30:16;;;;;;;16.02;11.77;;;17.50;99.90;;;;;;4809755;29;20107;-80
2022/04/29 08:32:44;;;;;;;22.77;14.68;;;17.30;99.90;;;;;;4826108;29;20481;-81
2022/04/29 08:35:10;;;;;;;19.13;13.32;;;17.40;99.90;;;;;;4825718;29;20034;-81
2022/04/29 08:37:37;;;;;;;21.88;13.45;;;17.60;99.90;;;;;;4808919;29;20504;-81
2022/04/29 08:40:05;;;;;;;15.68;12.13;;;18.10;99.90;;;;;;4809488;29;20026;-79
2022/04/29 08:42:37;;;;;;;21.17;12.88;;;18.50;99.90;;;;;;4825596;29;20026;-80
2022/04/29 08:45:10;;;;;;;17.33;12.48;;;18.90;99.90;;;;;;4825510;29;20027;-81
2022/04/29 08:47:38;;;;;;;19.13;12.98;;;19.10;99.90;;;;;;4826147;29;20030;-79
2022/04/29 08:50:18;;;;;;;17.65;12.95;;;19.10;99.90;;;;;;4809200;29;20030;-79
2022/04/29 08:52:45;;;;;;;15.25;11.90;;;19.10;99.90;;;;;;4825863;29;20029;-79
2022/04/29 09:00:41;;;;;;;16.73;11.90;;;19.40;99.90;;;;;;4826188;29;20565;-78
2022/04/29 09:03:16;;;;;;;16.58;11.70;;;19.40;99.90;;;;;;4808447;29;20466;-78
2022/04/29 09:05:43;;;;;;;14.02;10.52;;;18.80;99.90;;;;;;4809153;29;20034;-78
2022/04/29 09:08:21;;;;;;;16.15;9.80;;;18.90;99.90;;;;;;4825720;29;20085;-80
2022/04/29 09:10:52;;;;;;;18.48;9.77;;;19.40;99.90;;;;;;4825097;29;20105;-78
2022/04/29 09:13:26;;;;;;;14.20;9.52;;;19.00;96.50;;;;;;4817768;29;20037;-76
2022/04/29 09:15:52;;;;;;;10.00;7.45;;;18.60;98.70;;;;;;4809078;29;20044;-79
2022/04/29 09:18:42;;;;;;;133.07;44.35;;;18.30;99.90;;;;;;4825332;29;20105;-79
2022/04/29 09:21:29;;;;;;;13.23;8.10;;;18.70;96.90;;;;;;4814237;29;20091;-77
2022/04/29 09:23:59;;;;;;;9.05;6.68;;;18.90;98.50;;;;;;4825255;29;20044;-78
2022/04/29 09:26:27;;;;;;;7.75;6.45;;;19.60;99.90;;;;;;4825677;29;20462;-79
2022/04/29 09:28:54;;;;;;;7.97;5.90;;;19.80;86.90;;;;;;4808861;29;20027;-77
2022/04/29 09:31:20;;;;;;;10.48;7.20;;;19.40;89.50;;;;;;4825015;29;20370;-78
2022/04/29 09:33:57;;;;;;;10.95;7.32;;;19.80;91.80;;;;;;4808741;29;20026;-76
2022/04/29 09:36:25;;;;;;;8.43;6.65;;;19.90;87.40;;;;;;4808792;29;20034;-77
2022/04/29 09:41:55;;;;;;;9.98;7.38;;;19.30;88.80;;;;;;4825289;29;20036;-77
2022/04/29 09:44:28;;;;;;;11.68;8.57;;;19.20;91.20;;;;;;4825004;29;20026;-76
2022/04/29 09:46:54;;;;;;;11.88;7.72;;;19.60;91.60;;;;;;4825209;29;20030;-82
2022/04/29 09:49:21;;;;;;;10.32;7.82;;;19.90;90.90;;;;;;4808279;29;20415;-77
2022/04/29 09:51:51;;;;;;;10.20;7.35;;;19.60;88.70;;;;;;4808481;29;20113;-77
2022/04/29 09:54:22;;;;;;;12.57;7.47;;;19.20;90.10;;;;;;4808745;29;20374;-76
2022/04/29 09:57:03;;;;;;;11.23;7.55;;;19.60;90.60;;;;;;4823691;29;20027;-77
2022/04/29 09:59:33;;;;;;;11.48;6.65;;;20.00;88.50;;;;;;4823094;29;20046;-76
2022/04/29 10:02:00;;;;;;;9.07;6.82;;;20.30;76.70;;;;;;4808045;29;20087;-78
2022/04/29 10:04:28;;;;;;;12.13;6.97;;;20.70;81.10;;;;;;4825019;29;20474;-77
2022/04/29 10:06:54;;;;;;;15.00;7.65;;;20.50;78.10;;;;;;4808146;29;20037;-75
2022/04/29 10:09:22;;;;;;;12.35;7.47;;;20.00;75.40;;;;;;4808730;29;20032;-78
2022/04/29 10:11:49;;;;;;;11.68;6.35;;;20.00;74.70;;;;;;4808623;29;20026;-76
2022/04/29 10:14:17;;;;;;;10.35;6.72;;;20.40;73.50;;;;;;4824909;29;20057;-78
2022/04/29 10:21:15;;;;;;;9.00;6.25;;;20.90;74.80;;;;;;4824444;29;20061;-77
2022/04/29 10:22:18;;;;;;;10.60;6.15;;;20.30;69.80;;;;;;4824489;29;20416;-79
2022/04/29 10:24:44;;;;;;;8.85;6.70;;;20.30;74.40;;;;;;4808357;29;20377;-75
2022/04/29 10:27:11;;;;;;;9.15;6.95;;;20.00;72.40;;;;;;4824501;29;20482;-78
2022/04/29 10:29:37;;;;;;;13.05;6.68;;;19.60;74.40;;;;;;4824619;29;20019;-78
2022/04/29 10:32:05;;;;;;;9.65;6.35;;;19.30;73.80;;;;;;4824941;29;20030;-76
2022/04/29 10:34:31;;;;;;;9.25;6.85;;;19.00;76.40;;;;;;4824751;29;20078;-78
2022/04/29 10:37:00;;;;;;;14.63;8.82;;;18.90;79.80;;;;;;4808116;29;20031;-78
2022/04/29 10:39:26;;;;;;;14.07;8.32;;;18.70;82.30;;;;;;4824621;29;20022;-76
2022/04/29 10:41:58;;;;;;;10.75;7.80;;;18.80;84.00;;;;;;4824657;29;20030;-77
2022/04/29 10:44:24;;;;;;;12.82;7.90;;;18.60;81.30;;;;;;4824457;29;20037;-76
2022/04/29 10:46:50;;;;;;;13.30;8.05;;;18.50;85.60;;;;;;4807909;29;20034;-78
2022/04/29 10:49:21;;;;;;;11.10;7.40;;;18.40;90.10;;;;;;4807993;29;20126;-75
2022/04/29 10:51:55;;;;;;;10.37;7.37;;;18.30;87.80;;;;;;4808015;29;20026;-78
2022/04/29 10:54:41;;;;;;;11.38;7.20;;;18.10;89.70;;;;;;4824433;29;20766;-76
2022/04/29 10:57:12;;;;;;;13.10;6.13;;;18.00;87.30;;;;;;4824139;29;20038;-76
2022/04/29 10:59:59;;;;;;;11.00;6.25;;;17.90;84.00;;;;;;4807883;29;20386;-76
2022/04/29 11:02:30;;;;;;;13.18;6.57;;;17.80;84.80;;;;;;4826192;29;20375;-77
2022/04/29 11:04:57;;;;;;;14.80;8.35;;;17.70;87.00;;;;;;4827497;29;20069;-80
2022/04/29 11:07:36;;;;;;;11.80;7.40;;;17.70;86.20;;;;;;4827851;29;20061;-76
2022/04/29 11:10:04;;;;;;;14.98;7.28;;;17.80;89.10;;;;;;4827257;29;20037;-80
2022/04/29 11:12:35;;;;;;;8.95;6.32;;;17.80;86.90;;;;;;4811026;29;20042;-74
2022/04/29 11:15:14;;;;;;;8.18;5.25;;;17.90;83.50;;;;;;4827766;29;20026;-77
2022/04/29 11:17:41;;;;;;;9.30;6.03;;;18.00;84.60;;;;;;4827328;29;20129;-77
2022/04/29 11:20:19;;;;;;;10.45;5.93;;;18.00;86.50;;;;;;4827221;29;20054;-74
2022/04/29 11:25:57;;;;;;;7.65;4.93;;;18.20;81.50;;;;;;4826985;29;20087;-78
2022/04/29 11:28:27;;;;;;;8.18;5.00;;;18.20;79.90;;;;;;4827392;29;20019;-75
2022/04/29 11:31:08;;;;;;;8.32;4.85;;;18.30;78.50;;;;;;4826942;29;20026;-76
2022/04/29 11:33:35;;;;;;;8.38;4.93;;;18.40;77.40;;;;;;4826953;29;20352;-76
2022/04/29 11:36:04;;;;;;;8.25;5.00;;;18.50;75.60;;;;;;4826779;29;20463;-74
2022/04/29 11:38:31;;;;;;;7.78;4.43;;;18.50;73.90;;;;;;4827422;29;20038;-76
2022/04/29 11:41:00;;;;;;;7.00;3.90;;;18.60;74.40;;;;;;4826571;29;20026;-77
2022/04/29 11:43:26;;;;;;;6.38;4.40;;;18.70;71.60;;;;;;4826774;29;20026;-77
2022/04/29 11:46:07;;;;;;;9.55;4.55;;;18.80;72.30;;;;;;4826646;29;20389;-75
2022/04/29 11:48:36;;;;;;;9.80;5.00;;;18.90;73.60;;;;;;4826547;29;20083;-77
2022/04/29 11:51:07;;;;;;;7.40;5.13;;;18.90;73.90;;;;;;4826348;29;20023;-77
2022/04/29 11:53:33;;;;;;;6.30;4.35;;;19.00;72.50;;;;;;4826529;29;20023;-77
2022/04/29 11:55:59;;;;;;;6.93;5.05;;;18.90;71.80;;;;;;4826675;29;20071;-79
2022/04/29 11:58:29;;;;;;;7.45;4.97;;;19.00;71.90;;;;;;4810152;29;20031;-76
2022/04/29 12:00:55;;;;;;;9.02;4.72;;;19.00;73.50;;;;;;4810235;29;20054;-76
2022/04/29 12:03:22;;;;;;;9.35;5.40;;;19.00;72.60;;;;;;4826918;29;20030;-76
2022/04/29 12:05:49;;;;;;;9.35;6.53;;;18.90;72.10;;;;;;4810132;29;20086;-75
2022/04/29 12:08:15;;;;;;;11.38;6.25;;;18.80;74.70;;;;;;4826483;29;20033;-77
2022/04/29 12:10:45;;;;;;;8.40;6.35;;;18.90;75.10;;;;;;4826410;29;20022;-77
2022/04/29 12:13:11;;;;;;;11.63;6.30;;;18.90;73.90;;;;;;4826138;29;20037;-76
2022/04/29 12:15:39;;;;;;;11.52;6.30;;;18.80;73.60;;;;;;4826059;29;20102;-77
2022/04/29 12:18:08;;;;;;;11.45;5.68;;;18.90;73.80;;;;;;4826288;29;20038;-77
2022/04/29 12:20:34;;;;;;;10.65;6.07;;;18.90;72.30;;;;;;4810084;29;20033;-77
2022/04/29 12:23:26;;;;;;;9.00;6.38;;;19.10;76.60;;;;;;4809977;29;20030;-77
2022/04/29 12:25:54;;;;;;;8.50;5.57;;;19.30;75.80;;;;;;4826256;29;20026;-78
2022/04/29 12:28:26;;;;;;;7.30;4.53;;;19.20;70.60;;;;;;4826458;29;20035;-76
2022/04/29 12:36:53;;;;;;;10.27;7.13;;;19.10;74.90;;;;;;4825963;29;20088;-76
2022/04/29 12:39:27;;;;;;;13.25;7.82;;;19.20;73.20;;;;;;4809483;29;20118;-76
2022/04/29 12:42:05;;;;;;;10.88;6.70;;;19.10;72.10;;;;;;4826152;29;20057;-76
2022/04/29 12:45:11;;;;;;;13.38;7.68;;;19.10;70.00;;;;;;4825965;29;20033;-78
2022/04/29 12:47:38;;;;;;;12.25;6.90;;;19.40;70.00;;;;;;4825563;29;20381;-77
2022/04/29 12:50:31;;;;;;;7.97;5.78;;;20.50;69.60;;;;;;4809433;29;20378;-77
2022/04/29 12:53:03;;;;;;;8.50;6.38;;;;;;;;;;4825745;29;20378;-77
2022/04/29 12:55:42;;;;;;;7.93;6.32;;;21.90;65.70;;;;;;4825739;29;20058;-79
2022/04/29 12:58:09;;;;;;;10.60;6.70;;;21.20;62.10;;;;;;4825818;29;20035;-77
2022/04/29 13:00:40;;;;;;;10.43;6.35;;;20.90;65.10;;;;;;4825261;29;20054;-77
2022/04/29 13:03:15;;;;;;;10.90;6.15;;;20.50;64.30;;;;;;4826088;29;20054;-79
2022/04/29 13:05:41;;;;;;;7.85;5.22;;;20.10;62.50;;;;;;4825990;29;20026;-77
2022/04/29 13:08:09;;;;;;;7.78;5.82;;;19.90;63.30;;;;;;4825247;29;20075;-76
2022/04/29 13:11:03;;;;;;;9.13;5.63;;;19.60;67.60;;;;;;4825733;29;20155;-76
2022/04/29 13:13:29;;;;;;;9.05;6.00;;;19.50;66.10;;;;;;4822942;29;20045;-75
2022/04/29 13:15:55;;;;;;;10.95;6.28;;;19.30;66.30;;;;;;4824424;29;20042;-77
2022/04/29 13:18:22;;;;;;;9.05;7.18;;;19.20;64.20;;;;;;4808540;29;20030;-77
2022/04/29 13:20:52;;;;;;;8.32;5.90;;;19.20;66.10;;;;;;4809050;29;20026;-78
2022/04/29 13:23:18;;;;;;;8.98;5.57;;;19.20;67.10;;;;;;4825408;29;20422;-76
2022/04/29 13:25:45;;;;;;;8.00;5.70;;;19.10;66.70;;;;;;4824914;29;20026;-76
2022/04/29 13:28:11;;;;;;;8.93;5.28;;;19.10;66.60;;;;;;4825279;29;20085;-75
2022/04/29 13:30:39;;;;;;;9.70;5.97;;;19.00;67.30;;;;;;4825129;29;20022;-78
2022/04/29 13:33:05;;;;;;;10.43;6.75;;;19.00;68.00;;;;;;4825231;29;20022;-76
2022/04/29 13:35:31;;;;;;;9.10;6.47;;;19.00;68.60;;;;;;4825083;29;20030;-76
2022/04/29 13:37:57;;;;;;;9.63;7.05;;;19.00;66.60;;;;;;4824983;29;20058;-78
2022/04/29 13:40:24;;;;;;;10.80;6.90;;;19.00;67.30;;;;;;4824907;29;20053;-78
2022/04/29 13:42:52;;;;;;;12.32;6.65;;;19.10;70.00;;;;;;4825059;29;20034;-76
2022/04/29 13:45:20;;;;;;;11.88;5.68;;;19.20;68.40;;;;;;4825154;29;20528;-76
2022/04/29 13:47:46;;;;;;;6.90;5.28;;;19.90;67.40;;;;;;4825194;29;20079;-77
2022/04/29 13:50:14;;;;;;;23.50;13.35;;;20.40;64.90;;;;;;4824923;29;20473;-76